sensor_id;sensor_type;location;lat;lon;timestamp;temperature;humidity
71879;DHT22;59755;43.834;4.364;2022-12-07T00:00:28;4.90;72.20
71879;DHT22;59755;43.834;4.364;2022-12-07T00:02:53;4.90;72.20
71879;DHT22;59755;43.834;4.364;2022-12-07T00:05:19;5.00;72.00
71879;DHT22;59755;43.834;4.364;2022-12-07T00:07:45;4.90;72.40
71879;DHT22;59755;43.834;4.364;2022-12-07T00:10:11;4.90;72.10
71879;DHT22;59755;43.834;4.364;2022-12-07T00:12:36;4.90;72.50
71879;DHT22;59755;43.834;4.364;2022-12-07T00:15:02;4.80;72.90
71879;DHT22;59755;43.834;4.364;2022-12-07T00:17:28;4.80;72.60
71879;DHT22;59755;43.834;4.364;2022-12-07T00:19:54;4.80;72.90
71879;DHT22;59755;43.834;4.364;2022-12-07T00:22:19;4.80;73.20
71879;DHT22;59755;43.834;4.364;2022-12-07T00:24:45;4.80;73.00
71879;DHT22;59755;43.834;4.364;2022-12-07T00:27:11;4.80;73.20
71879;DHT22;59755;43.834;4.364;2022-12-07T00:29:37;4.80;73.30
71879;DHT22;59755;43.834;4.364;2022-12-07T00:32:03;4.80;73.40
71879;DHT22;59755;43.834;4.364;2022-12-07T00:34:29;4.90;73.40
71879;DHT22;59755;43.834;4.364;2022-12-07T00:36:54;4.80;73.30
71879;DHT22;59755;43.834;4.364;2022-12-07T00:39:20;4.80;73.60
71879;DHT22;59755;43.834;4.364;2022-12-07T00:41:46;4.70;73.80
71879;DHT22;59755;43.834;4.364;2022-12-07T00:44:12;4.70;73.60
71879;DHT22;59755;43.834;4.364;2022-12-07T00:46:37;4.70;73.80
71879;DHT22;59755;43.834;4.364;2022-12-07T00:49:03;4.70;73.80
71879;DHT22;59755;43.834;4.364;2022-12-07T00:51:29;4.70;74.10
71879;DHT22;59755;43.834;4.364;2022-12-07T00:53:54;4.80;74.30
71879;DHT22;59755;43.834;4.364;2022-12-07T00:56:25;4.70;74.30
71879;DHT22;59755;43.834;4.364;2022-12-07T00:59:01;4.80;74.00
71879;DHT22;59755;43.834;4.364;2022-12-07T01:01:30;4.70;74.30
71879;DHT22;59755;43.834;4.364;2022-12-07T01:03:56;4.70;74.30
71879;DHT22;59755;43.834;4.364;2022-12-07T01:06:23;4.70;74.20
71879;DHT22;59755;43.834;4.364;2022-12-07T01:08:49;4.60;74.70
71879;DHT22;59755;43.834;4.364;2022-12-07T01:11:17;4.60;74.70
71879;DHT22;59755;43.834;4.364;2022-12-07T01:13:44;4.60;74.70
71879;DHT22;59755;43.834;4.364;2022-12-07T01:16:12;4.70;74.40
71879;DHT22;59755;43.834;4.364;2022-12-07T01:18:39;4.70;74.40
71879;DHT22;59755;43.834;4.364;2022-12-07T01:21:11;4.60;74.60
71879;DHT22;59755;43.834;4.364;2022-12-07T01:23:38;4.60;74.90
71879;DHT22;59755;43.834;4.364;2022-12-07T01:26:07;4.70;74.50
71879;DHT22;59755;43.834;4.364;2022-12-07T01:28:34;4.70;74.30
71879;DHT22;59755;43.834;4.364;2022-12-07T01:31:11;4.70;74.40
71879;DHT22;59755;43.834;4.364;2022-12-07T01:33:38;4.70;74.20
71879;DHT22;59755;43.834;4.364;2022-12-07T01:36:19;4.60;74.50
71879;DHT22;59755;43.834;4.364;2022-12-07T01:38:46;4.70;74.40
71879;DHT22;59755;43.834;4.364;2022-12-07T01:41:13;4.70;74.30
71879;DHT22;59755;43.834;4.364;2022-12-07T01:46:32;4.70;74.20
71879;DHT22;59755;43.834;4.364;2022-12-07T01:48:58;4.70;74.20
71879;DHT22;59755;43.834;4.364;2022-12-07T01:51:25;4.60;74.50
71879;DHT22;59755;43.834;4.364;2022-12-07T01:53:51;4.70;74.20
71879;DHT22;59755;43.834;4.364;2022-12-07T01:56:21;4.60;74.30
71879;DHT22;59755;43.834;4.364;2022-12-07T01:58:48;4.70;73.60
71879;DHT22;59755;43.834;4.364;2022-12-07T02:01:14;4.70;73.80
71879;DHT22;59755;43.834;4.364;2022-12-07T02:03:43;4.80;73.70
71879;DHT22;59755;43.834;4.364;2022-12-07T02:06:11;4.80;73.60
71879;DHT22;59755;43.834;4.364;2022-12-07T02:08:37;4.80;73.30
71879;DHT22;59755;43.834;4.364;2022-12-07T02:11:05;4.80;73.30
71879;DHT22;59755;43.834;4.364;2022-12-07T02:13:34;4.80;73.80
71879;DHT22;59755;43.834;4.364;2022-12-07T02:22:27;4.80;73.50
71879;DHT22;59755;43.834;4.364;2022-12-07T02:24:54;4.90;73.30
71879;DHT22;59755;43.834;4.364;2022-12-07T02:35:34;4.80;73.40
71879;DHT22;59755;43.834;4.364;2022-12-07T02:40:57;4.70;73.40
71879;DHT22;59755;43.834;4.364;2022-12-07T02:43:34;4.70;73.70
71879;DHT22;59755;43.834;4.364;2022-12-07T02:46:06;4.80;73.10
71879;DHT22;59755;43.834;4.364;2022-12-07T02:48:34;4.80;73.10
71879;DHT22;59755;43.834;4.364;2022-12-07T02:51:01;4.80;72.90
71879;DHT22;59755;43.834;4.364;2022-12-07T02:53:41;4.70;73.40
71879;DHT22;59755;43.834;4.364;2022-12-07T02:56:28;4.80;73.20
71879;DHT22;59755;43.834;4.364;2022-12-07T02:59:16;4.70;72.90
71879;DHT22;59755;43.834;4.364;2022-12-07T03:18:26;4.80;72.70
71879;DHT22;59755;43.834;4.364;2022-12-07T03:20:56;4.80;72.50
71879;DHT22;59755;43.834;4.364;2022-12-07T03:23:25;4.80;72.20
71879;DHT22;59755;43.834;4.364;2022-12-07T03:25:55;4.80;72.50
71879;DHT22;59755;43.834;4.364;2022-12-07T03:28:24;4.80;72.20
71879;DHT22;59755;43.834;4.364;2022-12-07T03:33:28;4.80;72.50
71879;DHT22;59755;43.834;4.364;2022-12-07T03:36:01;4.80;72.20
71879;DHT22;59755;43.834;4.364;2022-12-07T03:38:44;4.80;72.50
71879;DHT22;59755;43.834;4.364;2022-12-07T03:43:46;4.80;72.40
71879;DHT22;59755;43.834;4.364;2022-12-07T03:51:51;4.70;72.70
71879;DHT22;59755;43.834;4.364;2022-12-07T03:55:15;4.70;72.80
71879;DHT22;59755;43.834;4.364;2022-12-07T03:57:15;4.60;72.70
71879;DHT22;59755;43.834;4.364;2022-12-07T03:59:43;4.60;73.20
71879;DHT22;59755;43.834;4.364;2022-12-07T04:02:11;4.60;72.40
71879;DHT22;59755;43.834;4.364;2022-12-07T04:04:38;4.60;72.50
71879;DHT22;59755;43.834;4.364;2022-12-07T04:07:04;4.60;73.00
71879;DHT22;59755;43.834;4.364;2022-12-07T04:09:30;4.60;72.80
71879;DHT22;59755;43.834;4.364;2022-12-07T04:11:56;4.70;72.30
71879;DHT22;59755;43.834;4.364;2022-12-07T04:14:22;4.70;72.70
71879;DHT22;59755;43.834;4.364;2022-12-07T04:16:56;4.70;72.30
71879;DHT22;59755;43.834;4.364;2022-12-07T04:19:25;4.60;72.80
71879;DHT22;59755;43.834;4.364;2022-12-07T04:21:50;4.70;72.40
71879;DHT22;59755;43.834;4.364;2022-12-07T04:24:16;4.60;72.30
71879;DHT22;59755;43.834;4.364;2022-12-07T04:26:43;4.60;72.20
71879;DHT22;59755;43.834;4.364;2022-12-07T04:29:10;4.70;72.10
71879;DHT22;59755;43.834;4.364;2022-12-07T04:31:36;4.70;72.10
71879;DHT22;59755;43.834;4.364;2022-12-07T04:34:03;4.60;72.40
71879;DHT22;59755;43.834;4.364;2022-12-07T04:36:29;4.60;72.60
71879;DHT22;59755;43.834;4.364;2022-12-07T04:38:55;4.60;72.30
71879;DHT22;59755;43.834;4.364;2022-12-07T04:41:21;4.60;72.20
71879;DHT22;59755;43.834;4.364;2022-12-07T04:43:56;4.60;72.00
71879;DHT22;59755;43.834;4.364;2022-12-07T04:46:23;4.60;72.30
71879;DHT22;59755;43.834;4.364;2022-12-07T04:48:50;4.60;72.80
71879;DHT22;59755;43.834;4.364;2022-12-07T04:51:20;4.60;72.50
71879;DHT22;59755;43.834;4.364;2022-12-07T04:53:46;4.50;72.60
71879;DHT22;59755;43.834;4.364;2022-12-07T04:56:13;4.50;72.50
71879;DHT22;59755;43.834;4.364;2022-12-07T04:58:39;4.60;72.40
71879;DHT22;59755;43.834;4.364;2022-12-07T05:01:04;4.50;72.30
71879;DHT22;59755;43.834;4.364;2022-12-07T05:03:30;4.50;72.70
71879;DHT22;59755;43.834;4.364;2022-12-07T05:05:56;4.50;72.60
71879;DHT22;59755;43.834;4.364;2022-12-07T05:08:22;4.50;72.70
71879;DHT22;59755;43.834;4.364;2022-12-07T05:10:49;4.60;72.20
71879;DHT22;59755;43.834;4.364;2022-12-07T05:13:15;4.50;72.40
71879;DHT22;59755;43.834;4.364;2022-12-07T05:15:41;4.50;72.40
71879;DHT22;59755;43.834;4.364;2022-12-07T05:18:09;4.50;72.80
71879;DHT22;59755;43.834;4.364;2022-12-07T05:20:38;4.50;73.00
71879;DHT22;59755;43.834;4.364;2022-12-07T05:23:04;4.40;72.70
71879;DHT22;59755;43.834;4.364;2022-12-07T05:25:29;4.40;73.10
71879;DHT22;59755;43.834;4.364;2022-12-07T05:27:56;4.40;73.10
71879;DHT22;59755;43.834;4.364;2022-12-07T05:30:23;4.50;72.70
71879;DHT22;59755;43.834;4.364;2022-12-07T05:32:48;4.40;72.80
71879;DHT22;59755;43.834;4.364;2022-12-07T05:35:14;4.40;72.70
71879;DHT22;59755;43.834;4.364;2022-12-07T05:37:40;4.50;73.20
71879;DHT22;59755;43.834;4.364;2022-12-07T05:40:06;4.50;72.70
71879;DHT22;59755;43.834;4.364;2022-12-07T05:42:32;4.50;72.50
71879;DHT22;59755;43.834;4.364;2022-12-07T05:44:58;4.50;72.60
71879;DHT22;59755;43.834;4.364;2022-12-07T05:47:24;4.50;72.80
71879;DHT22;59755;43.834;4.364;2022-12-07T05:49:49;4.40;72.80
71879;DHT22;59755;43.834;4.364;2022-12-07T05:52:15;4.50;72.70
71879;DHT22;59755;43.834;4.364;2022-12-07T05:54:41;4.60;72.40
71879;DHT22;59755;43.834;4.364;2022-12-07T05:57:07;4.50;72.60
71879;DHT22;59755;43.834;4.364;2022-12-07T05:59:32;4.50;72.60
71879;DHT22;59755;43.834;4.364;2022-12-07T06:02:04;4.50;72.40
71879;DHT22;59755;43.834;4.364;2022-12-07T06:04:36;4.50;72.60
71879;DHT22;59755;43.834;4.364;2022-12-07T06:07:03;4.40;73.20
71879;DHT22;59755;43.834;4.364;2022-12-07T06:09:29;4.50;73.10
71879;DHT22;59755;43.834;4.364;2022-12-07T06:11:55;4.50;73.00
71879;DHT22;59755;43.834;4.364;2022-12-07T06:14:40;4.50;72.50
71879;DHT22;59755;43.834;4.364;2022-12-07T06:17:06;4.50;73.40
71879;DHT22;59755;43.834;4.364;2022-12-07T06:19:32;4.40;72.80
71879;DHT22;59755;43.834;4.364;2022-12-07T06:21:59;4.40;73.10
71879;DHT22;59755;43.834;4.364;2022-12-07T06:24:25;4.50;73.00
71879;DHT22;59755;43.834;4.364;2022-12-07T06:26:51;4.50;72.60
71879;DHT22;59755;43.834;4.364;2022-12-07T06:29:17;4.40;72.90
71879;DHT22;59755;43.834;4.364;2022-12-07T06:31:44;4.40;72.70
71879;DHT22;59755;43.834;4.364;2022-12-07T06:34:12;4.50;72.60
71879;DHT22;59755;43.834;4.364;2022-12-07T06:36:38;4.50;72.80
71879;DHT22;59755;43.834;4.364;2022-12-07T06:39:04;4.50;72.70
71879;DHT22;59755;43.834;4.364;2022-12-07T06:41:31;4.50;72.50
71879;DHT22;59755;43.834;4.364;2022-12-07T06:43:57;4.50;72.60
71879;DHT22;59755;43.834;4.364;2022-12-07T06:46:23;4.50;72.70
71879;DHT22;59755;43.834;4.364;2022-12-07T06:48:49;4.50;72.60
71879;DHT22;59755;43.834;4.364;2022-12-07T06:51:16;4.60;72.90
71879;DHT22;59755;43.834;4.364;2022-12-07T06:53:41;4.60;72.80
71879;DHT22;59755;43.834;4.364;2022-12-07T06:56:07;4.60;73.00
71879;DHT22;59755;43.834;4.364;2022-12-07T06:58:33;4.60;72.80
71879;DHT22;59755;43.834;4.364;2022-12-07T07:00:59;4.60;72.50
71879;DHT22;59755;43.834;4.364;2022-12-07T07:03:24;4.50;73.10
71879;DHT22;59755;43.834;4.364;2022-12-07T07:05:50;4.50;73.00
71879;DHT22;59755;43.834;4.364;2022-12-07T07:08:16;4.40;73.20
71879;DHT22;59755;43.834;4.364;2022-12-07T07:10:42;4.40;73.70
71879;DHT22;59755;43.834;4.364;2022-12-07T07:13:08;4.40;73.80
71879;DHT22;59755;43.834;4.364;2022-12-07T07:15:34;4.40;73.50
71879;DHT22;59755;43.834;4.364;2022-12-07T07:18:00;4.40;73.40
71879;DHT22;59755;43.834;4.364;2022-12-07T07:20:26;4.50;74.00
71879;DHT22;59755;43.834;4.364;2022-12-07T07:22:54;4.60;72.80
71879;DHT22;59755;43.834;4.364;2022-12-07T07:25:20;4.60;73.20
71879;DHT22;59755;43.834;4.364;2022-12-07T07:27:46;4.60;72.80
71879;DHT22;59755;43.834;4.364;2022-12-07T07:30:12;4.70;73.10
71879;DHT22;59755;43.834;4.364;2022-12-07T07:32:37;4.70;73.10
71879;DHT22;59755;43.834;4.364;2022-12-07T07:35:03;4.60;73.30
71879;DHT22;59755;43.834;4.364;2022-12-07T07:37:29;4.70;73.70
71879;DHT22;59755;43.834;4.364;2022-12-07T07:39:55;4.80;73.20
71879;DHT22;59755;43.834;4.364;2022-12-07T07:42:21;4.80;72.80
71879;DHT22;59755;43.834;4.364;2022-12-07T07:44:46;4.80;72.80
71879;DHT22;59755;43.834;4.364;2022-12-07T07:47:12;4.80;72.80
71879;DHT22;59755;43.834;4.364;2022-12-07T07:49:38;4.80;72.80
71879;DHT22;59755;43.834;4.364;2022-12-07T07:52:05;4.90;72.70
71879;DHT22;59755;43.834;4.364;2022-12-07T07:54:31;4.90;72.50
71879;DHT22;59755;43.834;4.364;2022-12-07T07:56:57;5.00;72.20
71879;DHT22;59755;43.834;4.364;2022-12-07T07:59:23;5.00;71.90
71879;DHT22;59755;43.834;4.364;2022-12-07T08:01:50;5.00;72.30
71879;DHT22;59755;43.834;4.364;2022-12-07T08:04:16;5.00;72.00
71879;DHT22;59755;43.834;4.364;2022-12-07T08:06:41;5.10;72.60
71879;DHT22;59755;43.834;4.364;2022-12-07T08:09:08;5.10;71.50
71879;DHT22;59755;43.834;4.364;2022-12-07T08:11:34;5.10;71.90
71879;DHT22;59755;43.834;4.364;2022-12-07T08:14:00;5.20;72.50
71879;DHT22;59755;43.834;4.364;2022-12-07T08:16:26;5.10;71.90
71879;DHT22;59755;43.834;4.364;2022-12-07T08:18:52;5.20;71.90
71879;DHT22;59755;43.834;4.364;2022-12-07T08:21:17;5.20;71.90
71879;DHT22;59755;43.834;4.364;2022-12-07T08:23:43;5.30;71.70
71879;DHT22;59755;43.834;4.364;2022-12-07T08:26:15;5.40;71.40
71879;DHT22;59755;43.834;4.364;2022-12-07T08:28:42;5.50;70.70
71879;DHT22;59755;43.834;4.364;2022-12-07T08:31:16;5.50;70.50
71879;DHT22;59755;43.834;4.364;2022-12-07T08:33:45;5.50;70.90
71879;DHT22;59755;43.834;4.364;2022-12-07T08:36:12;5.50;70.60
71879;DHT22;59755;43.834;4.364;2022-12-07T08:38:39;5.60;70.80
71879;DHT22;59755;43.834;4.364;2022-12-07T08:41:05;5.70;70.50
71879;DHT22;59755;43.834;4.364;2022-12-07T08:43:31;5.70;70.20
71879;DHT22;59755;43.834;4.364;2022-12-07T08:51:32;6.00;69.50
71879;DHT22;59755;43.834;4.364;2022-12-07T08:53:59;6.10;72.20
71879;DHT22;59755;43.834;4.364;2022-12-07T08:56:27;6.40;69.60
71879;DHT22;59755;43.834;4.364;2022-12-07T08:58:53;6.50;67.80
71879;DHT22;59755;43.834;4.364;2022-12-07T09:01:18;6.70;68.30
71879;DHT22;59755;43.834;4.364;2022-12-07T09:03:44;6.80;67.50
71879;DHT22;59755;43.834;4.364;2022-12-07T09:06:10;6.80;67.20
71879;DHT22;59755;43.834;4.364;2022-12-07T09:08:39;6.90;67.00
71879;DHT22;59755;43.834;4.364;2022-12-07T09:11:05;7.00;66.50
71879;DHT22;59755;43.834;4.364;2022-12-07T09:13:31;6.90;65.90
71879;DHT22;59755;43.834;4.364;2022-12-07T09:15:57;6.90;66.40
71879;DHT22;59755;43.834;4.364;2022-12-07T09:18:22;6.90;66.40
71879;DHT22;59755;43.834;4.364;2022-12-07T09:20:49;7.00;65.90
71879;DHT22;59755;43.834;4.364;2022-12-07T09:23:15;6.90;65.80
71879;DHT22;59755;43.834;4.364;2022-12-07T09:25:41;7.00;65.80
71879;DHT22;59755;43.834;4.364;2022-12-07T09:28:07;7.10;65.30
71879;DHT22;59755;43.834;4.364;2022-12-07T09:30:32;7.10;64.70
71879;DHT22;59755;43.834;4.364;2022-12-07T09:32:58;7.20;64.40
71879;DHT22;59755;43.834;4.364;2022-12-07T09:35:25;7.30;64.10
71879;DHT22;59755;43.834;4.364;2022-12-07T09:37:50;7.40;63.50
71879;DHT22;59755;43.834;4.364;2022-12-07T09:40:18;7.70;62.60
71879;DHT22;59755;43.834;4.364;2022-12-07T09:42:47;7.90;61.70
71879;DHT22;59755;43.834;4.364;2022-12-07T09:45:24;8.20;61.20
71879;DHT22;59755;43.834;4.364;2022-12-07T09:47:51;8.50;59.70
71879;DHT22;59755;43.834;4.364;2022-12-07T09:50:20;8.90;58.30
71879;DHT22;59755;43.834;4.364;2022-12-07T09:52:47;9.10;56.70
71879;DHT22;59755;43.834;4.364;2022-12-07T09:55:16;9.40;56.40
71879;DHT22;59755;43.834;4.364;2022-12-07T09:57:44;9.60;55.50
71879;DHT22;59755;43.834;4.364;2022-12-07T10:00:18;9.70;55.60
71879;DHT22;59755;43.834;4.364;2022-12-07T10:02:48;9.90;55.20
71879;DHT22;59755;43.834;4.364;2022-12-07T10:05:18;10.10;54.10
71879;DHT22;59755;43.834;4.364;2022-12-07T10:07:46;10.20;53.90
71879;DHT22;59755;43.834;4.364;2022-12-07T10:10:30;10.20;53.20
71879;DHT22;59755;43.834;4.364;2022-12-07T10:13:05;10.30;52.80
71879;DHT22;59755;43.834;4.364;2022-12-07T10:15:45;10.10;53.80
71879;DHT22;59755;43.834;4.364;2022-12-07T10:21:11;10.20;53.70
71879;DHT22;59755;43.834;4.364;2022-12-07T10:23:43;10.30;52.90
71879;DHT22;59755;43.834;4.364;2022-12-07T10:29:33;10.40;53.00
71879;DHT22;59755;43.834;4.364;2022-12-07T10:32:51;10.40;52.80
71879;DHT22;59755;43.834;4.364;2022-12-07T10:35:19;10.40;52.90
71879;DHT22;59755;43.834;4.364;2022-12-07T10:37:45;10.40;52.70
71879;DHT22;59755;43.834;4.364;2022-12-07T10:40:33;10.20;53.80
71879;DHT22;59755;43.834;4.364;2022-12-07T10:51:10;9.90;54.60
71879;DHT22;59755;43.834;4.364;2022-12-07T11:04:59;9.70;55.00
71879;DHT22;59755;43.834;4.364;2022-12-07T11:22:09;9.80;55.10
71879;DHT22;59755;43.834;4.364;2022-12-07T11:25:00;9.70;55.60
71879;DHT22;59755;43.834;4.364;2022-12-07T11:27:58;9.70;55.20
71879;DHT22;59755;43.834;4.364;2022-12-07T11:30:42;9.70;55.40
71879;DHT22;59755;43.834;4.364;2022-12-07T11:33:26;9.80;55.40
71879;DHT22;59755;43.834;4.364;2022-12-07T11:38:57;9.90;54.10
71879;DHT22;59755;43.834;4.364;2022-12-07T11:41:28;10.10;53.90
71879;DHT22;59755;43.834;4.364;2022-12-07T11:46:27;9.90;54.50
71879;DHT22;59755;43.834;4.364;2022-12-07T11:52:54;10.10;54.30
71879;DHT22;59755;43.834;4.364;2022-12-07T12:03:35;10.30;52.10
71879;DHT22;59755;43.834;4.364;2022-12-07T12:06:03;10.60;51.80
71879;DHT22;59755;43.834;4.364;2022-12-07T12:08:38;10.80;51.60
71879;DHT22;59755;43.834;4.364;2022-12-07T12:19:55;11.10;51.40
71879;DHT22;59755;43.834;4.364;2022-12-07T12:22:37;10.70;51.70
71879;DHT22;59755;43.834;4.364;2022-12-07T12:25:06;10.50;52.50
71879;DHT22;59755;43.834;4.364;2022-12-07T12:27:37;10.70;52.50
71879;DHT22;59755;43.834;4.364;2022-12-07T12:30:06;10.80;51.50
71879;DHT22;59755;43.834;4.364;2022-12-07T12:40:54;10.60;52.00
71879;DHT22;59755;43.834;4.364;2022-12-07T12:51:43;10.40;53.60
71879;DHT22;59755;43.834;4.364;2022-12-07T12:59:22;10.60;52.60
71879;DHT22;59755;43.834;4.364;2022-12-07T13:01:51;10.80;51.70
71879;DHT22;59755;43.834;4.364;2022-12-07T13:04:23;10.90;51.50
71879;DHT22;59755;43.834;4.364;2022-12-07T13:06:49;10.80;51.10
71879;DHT22;59755;43.834;4.364;2022-12-07T13:09:42;10.70;51.90
71879;DHT22;59755;43.834;4.364;2022-12-07T13:12:14;10.60;51.90
71879;DHT22;59755;43.834;4.364;2022-12-07T13:14:58;10.40;52.10
71879;DHT22;59755;43.834;4.364;2022-12-07T13:20:03;10.50;52.30
71879;DHT22;59755;43.834;4.364;2022-12-07T13:25:07;10.30;52.20
71879;DHT22;59755;43.834;4.364;2022-12-07T13:27:37;10.30;52.40
71879;DHT22;59755;43.834;4.364;2022-12-07T13:30:14;10.40;52.00
71879;DHT22;59755;43.834;4.364;2022-12-07T13:32:40;11.00;51.20
71879;DHT22;59755;43.834;4.364;2022-12-07T13:35:32;10.90;50.70
71879;DHT22;59755;43.834;4.364;2022-12-07T13:37:59;10.50;51.90
71879;DHT22;59755;43.834;4.364;2022-12-07T13:40:26;10.40;52.30
71879;DHT22;59755;43.834;4.364;2022-12-07T13:43:03;10.30;52.30
71879;DHT22;59755;43.834;4.364;2022-12-07T13:45:32;10.20;52.60
71879;DHT22;59755;43.834;4.364;2022-12-07T13:50:53;9.60;54.30
71879;DHT22;59755;43.834;4.364;2022-12-07T13:53:19;9.50;54.60
71879;DHT22;59755;43.834;4.364;2022-12-07T13:55:46;9.50;54.50
71879;DHT22;59755;43.834;4.364;2022-12-07T13:58:13;9.40;55.30
71879;DHT22;59755;43.834;4.364;2022-12-07T14:00:40;9.30;55.30
71879;DHT22;59755;43.834;4.364;2022-12-07T14:05:41;9.20;56.30
71879;DHT22;59755;43.834;4.364;2022-12-07T14:10:53;9.20;56.00
71879;DHT22;59755;43.834;4.364;2022-12-07T14:13:31;9.20;56.20
71879;DHT22;59755;43.834;4.364;2022-12-07T14:16:00;9.10;56.40
71879;DHT22;59755;43.834;4.364;2022-12-07T14:18:27;9.00;56.80
71879;DHT22;59755;43.834;4.364;2022-12-07T14:23:40;9.00;57.00
71879;DHT22;59755;43.834;4.364;2022-12-07T14:26:14;9.00;56.70
71879;DHT22;59755;43.834;4.364;2022-12-07T14:28:42;9.00;56.70
71879;DHT22;59755;43.834;4.364;2022-12-07T14:31:18;8.90;57.50
71879;DHT22;59755;43.834;4.364;2022-12-07T14:33:46;8.80;57.80
71879;DHT22;59755;43.834;4.364;2022-12-07T14:36:13;8.90;57.70
71879;DHT22;59755;43.834;4.364;2022-12-07T14:38:39;8.70;57.80
71879;DHT22;59755;43.834;4.364;2022-12-07T14:41:14;8.70;58.10
71879;DHT22;59755;43.834;4.364;2022-12-07T14:43:59;8.60;58.10
71879;DHT22;59755;43.834;4.364;2022-12-07T14:46:25;8.60;58.30
71879;DHT22;59755;43.834;4.364;2022-12-07T14:48:51;8.60;58.30
71879;DHT22;59755;43.834;4.364;2022-12-07T14:51:16;8.50;58.60
71879;DHT22;59755;43.834;4.364;2022-12-07T14:53:50;8.30;59.10
71879;DHT22;59755;43.834;4.364;2022-12-07T14:56:18;8.30;59.60
71879;DHT22;59755;43.834;4.364;2022-12-07T14:58:43;8.20;59.40
71879;DHT22;59755;43.834;4.364;2022-12-07T15:01:09;8.10;59.80
71879;DHT22;59755;43.834;4.364;2022-12-07T15:03:35;8.10;59.90
71879;DHT22;59755;43.834;4.364;2022-12-07T15:06:06;8.10;60.00
71879;DHT22;59755;43.834;4.364;2022-12-07T15:08:32;8.10;60.00
71879;DHT22;59755;43.834;4.364;2022-12-07T15:10:57;8.10;60.20
71879;DHT22;59755;43.834;4.364;2022-12-07T15:13:23;8.00;60.40
71879;DHT22;59755;43.834;4.364;2022-12-07T15:16:10;8.00;60.80
71879;DHT22;59755;43.834;4.364;2022-12-07T15:18:38;7.90;60.90
71879;DHT22;59755;43.834;4.364;2022-12-07T15:21:03;7.80;61.10
71879;DHT22;59755;43.834;4.364;2022-12-07T15:23:29;7.80;61.30
71879;DHT22;59755;43.834;4.364;2022-12-07T15:25:56;7.80;61.00
71879;DHT22;59755;43.834;4.364;2022-12-07T15:28:22;7.70;61.40
71879;DHT22;59755;43.834;4.364;2022-12-07T15:30:48;7.60;61.40
71879;DHT22;59755;43.834;4.364;2022-12-07T15:33:13;7.50;61.70
71879;DHT22;59755;43.834;4.364;2022-12-07T15:35:44;7.50;61.80
71879;DHT22;59755;43.834;4.364;2022-12-07T15:38:10;7.50;61.70
71879;DHT22;59755;43.834;4.364;2022-12-07T15:40:36;7.40;62.10
71879;DHT22;59755;43.834;4.364;2022-12-07T15:43:02;7.40;62.10
71879;DHT22;59755;43.834;4.364;2022-12-07T15:45:28;7.40;62.20
71879;DHT22;59755;43.834;4.364;2022-12-07T15:47:54;7.40;62.40
71879;DHT22;59755;43.834;4.364;2022-12-07T15:50:21;7.20;62.70
71879;DHT22;59755;43.834;4.364;2022-12-07T15:52:47;7.20;63.10
71879;DHT22;59755;43.834;4.364;2022-12-07T15:55:13;7.20;63.30
71879;DHT22;59755;43.834;4.364;2022-12-07T15:57:40;7.10;63.40
71879;DHT22;59755;43.834;4.364;2022-12-07T16:00:07;7.10;63.30
71879;DHT22;59755;43.834;4.364;2022-12-07T16:02:34;7.10;63.50
71879;DHT22;59755;43.834;4.364;2022-12-07T16:05:00;7.10;63.70
71879;DHT22;59755;43.834;4.364;2022-12-07T16:07:25;7.00;63.70
71879;DHT22;59755;43.834;4.364;2022-12-07T16:09:51;6.90;63.90
71879;DHT22;59755;43.834;4.364;2022-12-07T16:12:17;7.00;64.10
71879;DHT22;59755;43.834;4.364;2022-12-07T16:14:43;6.90;64.50
71879;DHT22;59755;43.834;4.364;2022-12-07T16:17:09;6.90;64.50
71879;DHT22;59755;43.834;4.364;2022-12-07T16:19:36;6.90;64.50
71879;DHT22;59755;43.834;4.364;2022-12-07T16:22:03;6.80;64.80
71879;DHT22;59755;43.834;4.364;2022-12-07T16:24:30;6.80;64.90
71879;DHT22;59755;43.834;4.364;2022-12-07T16:26:56;6.70;65.30
71879;DHT22;59755;43.834;4.364;2022-12-07T16:29:22;6.60;65.50
71879;DHT22;59755;43.834;4.364;2022-12-07T16:31:49;6.60;65.70
71879;DHT22;59755;43.834;4.364;2022-12-07T16:34:15;6.60;65.70
71879;DHT22;59755;43.834;4.364;2022-12-07T16:36:41;6.60;65.80
71879;DHT22;59755;43.834;4.364;2022-12-07T16:39:06;6.50;66.00
71879;DHT22;59755;43.834;4.364;2022-12-07T16:41:32;6.50;66.30
71879;DHT22;59755;43.834;4.364;2022-12-07T16:44:04;6.50;66.50
71879;DHT22;59755;43.834;4.364;2022-12-07T16:46:32;6.40;66.70
71879;DHT22;59755;43.834;4.364;2022-12-07T16:48:58;6.50;66.60
71879;DHT22;59755;43.834;4.364;2022-12-07T16:51:24;6.50;66.80
71879;DHT22;59755;43.834;4.364;2022-12-07T16:53:52;6.40;67.00
71879;DHT22;59755;43.834;4.364;2022-12-07T16:56:18;6.40;66.80
71879;DHT22;59755;43.834;4.364;2022-12-07T16:58:44;6.30;67.00
71879;DHT22;59755;43.834;4.364;2022-12-07T17:01:14;6.30;67.40
71879;DHT22;59755;43.834;4.364;2022-12-07T17:03:42;6.30;67.10
71879;DHT22;59755;43.834;4.364;2022-12-07T17:06:27;6.40;66.90
71879;DHT22;59755;43.834;4.364;2022-12-07T17:08:54;6.30;67.60
71879;DHT22;59755;43.834;4.364;2022-12-07T17:11:26;6.30;67.40
71879;DHT22;59755;43.834;4.364;2022-12-07T17:13:52;6.30;67.50
71879;DHT22;59755;43.834;4.364;2022-12-07T17:16:37;6.30;67.70
71879;DHT22;59755;43.834;4.364;2022-12-07T17:19:08;6.20;67.80
71879;DHT22;59755;43.834;4.364;2022-12-07T17:21:34;6.20;67.90
71879;DHT22;59755;43.834;4.364;2022-12-07T17:24:01;6.20;67.90
71879;DHT22;59755;43.834;4.364;2022-12-07T17:26:28;6.20;67.90
71879;DHT22;59755;43.834;4.364;2022-12-07T17:28:54;6.20;67.80
71879;DHT22;59755;43.834;4.364;2022-12-07T17:31:22;6.10;68.00
71879;DHT22;59755;43.834;4.364;2022-12-07T17:33:48;6.10;68.30
71879;DHT22;59755;43.834;4.364;2022-12-07T17:36:20;6.00;68.50
71879;DHT22;59755;43.834;4.364;2022-12-07T17:38:47;6.00;68.50
71879;DHT22;59755;43.834;4.364;2022-12-07T17:41:25;6.00;68.80
71879;DHT22;59755;43.834;4.364;2022-12-07T17:44:15;6.00;68.40
71879;DHT22;59755;43.834;4.364;2022-12-07T17:46:41;6.10;68.50
71879;DHT22;59755;43.834;4.364;2022-12-07T17:49:07;6.00;68.90
71879;DHT22;59755;43.834;4.364;2022-12-07T17:51:33;6.00;68.70
71879;DHT22;59755;43.834;4.364;2022-12-07T17:54:18;6.00;68.80
71879;DHT22;59755;43.834;4.364;2022-12-07T17:56:44;5.90;69.30
71879;DHT22;59755;43.834;4.364;2022-12-07T17:59:10;5.90;69.30
71879;DHT22;59755;43.834;4.364;2022-12-07T18:01:37;5.90;69.30
71879;DHT22;59755;43.834;4.364;2022-12-07T18:04:03;5.90;69.30
71879;DHT22;59755;43.834;4.364;2022-12-07T18:06:29;5.90;69.10
71879;DHT22;59755;43.834;4.364;2022-12-07T18:08:55;5.90;69.10
71879;DHT22;59755;43.834;4.364;2022-12-07T18:11:21;5.90;69.00
71879;DHT22;59755;43.834;4.364;2022-12-07T18:13:47;5.90;69.70
71879;DHT22;59755;43.834;4.364;2022-12-07T18:16:18;5.90;69.40
71879;DHT22;59755;43.834;4.364;2022-12-07T18:18:44;5.90;69.60
71879;DHT22;59755;43.834;4.364;2022-12-07T18:21:12;5.90;69.50
71879;DHT22;59755;43.834;4.364;2022-12-07T18:23:44;5.90;69.30
71879;DHT22;59755;43.834;4.364;2022-12-07T18:26:11;5.90;69.40
71879;DHT22;59755;43.834;4.364;2022-12-07T18:28:38;5.80;69.80
71879;DHT22;59755;43.834;4.364;2022-12-07T18:31:04;5.90;69.60